createdAt,value
2022-12-26T00:00:28.237Z,63.91
2022-12-26T00:01:28.198Z,59.21
2022-12-26T00:02:28.217Z,59.07
2022-12-26T00:03:28.269Z,68.68
2022-12-26T00:04:52.377Z,58.63
2022-12-26T00:05:29.132Z,58.63
2022-12-26T00:06:28.124Z,58.64
2022-12-26T00:07:28.222Z,63.79
2022-12-26T00:08:29.121Z,59.12
2022-12-26T00:09:28.086Z,58.46
2022-12-26T00:10:28.119Z,58.87
2022-12-26T00:11:28.092Z,64.28
2022-12-26T00:12:28.132Z,65.27
2022-12-26T00:13:39.996Z,64.76
2022-12-26T00:14:30.112Z,59.10
2022-12-26T00:15:29.122Z,60.98
2022-12-26T00:16:28.135Z,63.76
2022-12-26T00:17:28.036Z,66.13
2022-12-26T00:18:28.089Z,64.80
2022-12-26T00:19:28.075Z,65.73
2022-12-26T00:20:28.052Z,66.29
2022-12-26T00:21:28.045Z,65.13
2022-12-26T00:22:28.030Z,59.54
2022-12-26T00:23:28.085Z,70.64
2022-12-26T00:24:28.033Z,59.61
2022-12-26T00:25:28.009Z,59.03
2022-12-26T00:26:28.008Z,58.66
2022-12-26T00:27:28.028Z,58.89
2022-12-26T00:28:28.023Z,58.83
2022-12-26T00:29:28.057Z,59.22
2022-12-26T00:30:27.995Z,59.26
2022-12-26T00:31:28.106Z,67.80
2022-12-26T00:32:27.994Z,64.90
2022-12-26T00:33:27.946Z,59.59
2022-12-26T00:34:28.091Z,59.35
2022-12-26T00:35:27.958Z,59.64
2022-12-26T00:36:27.959Z,59.11
2022-12-26T00:37:27.916Z,59.05
2022-12-26T00:38:27.906Z,59.96
2022-12-26T00:39:27.965Z,67.96
2022-12-26T00:40:28.026Z,62.35
2022-12-26T00:41:27.953Z,59.68
2022-12-26T00:42:27.921Z,59.05
2022-12-26T00:43:27.933Z,58.86
2022-12-26T00:44:27.942Z,59.12
2022-12-26T00:45:27.952Z,59.19
2022-12-26T00:46:28.022Z,64.23
2022-12-26T00:47:27.895Z,59.21
2022-12-26T00:48:27.892Z,58.91
2022-12-26T00:49:28.886Z,58.91
2022-12-26T00:50:34.399Z,58.94
2022-12-26T00:51:28.887Z,61.62
2022-12-26T00:52:27.894Z,67.98
2022-12-26T00:53:27.842Z,58.93
2022-12-26T00:54:27.859Z,59.09
2022-12-26T00:55:27.871Z,59.15
2022-12-26T00:56:27.862Z,58.79
2022-12-26T00:57:27.846Z,58.86
2022-12-26T00:58:27.878Z,58.83
2022-12-26T00:59:27.842Z,59.79
2022-12-26T01:00:27.823Z,64.66
2022-12-26T01:01:28.011Z,58.78
2022-12-26T01:02:28.016Z,58.56
2022-12-26T01:03:27.857Z,58.75
2022-12-26T01:04:27.830Z,58.97
2022-12-26T01:05:27.833Z,59.08
2022-12-26T01:06:27.792Z,66.51
2022-12-26T01:07:27.805Z,58.94
2022-12-26T01:08:27.790Z,67.00
2022-12-26T01:09:27.755Z,59.33
2022-12-26T01:10:27.725Z,58.86
2022-12-26T01:11:27.716Z,59.03
2022-12-26T01:12:27.773Z,59.10
2022-12-26T01:13:27.742Z,58.67
2022-12-26T01:14:27.749Z,58.60
2022-12-26T01:15:27.714Z,58.67
2022-12-26T01:16:27.803Z,58.71
2022-12-26T01:17:27.714Z,59.27
2022-12-26T01:18:27.715Z,66.52
2022-12-26T01:19:27.730Z,59.01
2022-12-26T01:20:27.717Z,58.96
2022-12-26T01:21:27.684Z,58.66
2022-12-26T01:22:27.708Z,58.64
2022-12-26T01:23:27.713Z,58.47
2022-12-26T01:24:27.675Z,58.30
2022-12-26T01:25:27.664Z,58.44
2022-12-26T01:26:27.695Z,64.16
2022-12-26T01:27:27.656Z,60.88
2022-12-26T01:28:27.687Z,58.82
2022-12-26T01:29:27.651Z,64.88
2022-12-26T01:30:27.655Z,58.46
2022-12-26T01:31:27.672Z,58.51
2022-12-26T01:32:27.647Z,58.73
2022-12-26T01:33:27.643Z,59.15
2022-12-26T01:34:27.611Z,64.40
2022-12-26T01:35:27.598Z,58.71
2022-12-26T01:36:27.583Z,67.03
2022-12-26T01:37:27.608Z,63.31
2022-12-26T01:38:27.625Z,64.52
2022-12-26T01:39:27.590Z,58.48
2022-12-26T01:40:27.598Z,58.11
2022-12-26T01:41:27.564Z,58.31
2022-12-26T01:42:27.564Z,58.36
2022-12-26T01:43:27.550Z,58.53
2022-12-26T01:44:27.578Z,65.03
2022-12-26T01:45:27.801Z,58.62
2022-12-26T01:46:27.628Z,64.71
2022-12-26T01:47:27.557Z,64.69
2022-12-26T01:48:27.522Z,59.22
2022-12-26T01:49:27.509Z,64.46
2022-12-26T01:50:27.545Z,58.59
2022-12-26T01:51:27.640Z,65.40
2022-12-26T01:52:27.511Z,59.82
2022-12-26T01:53:27.526Z,58.28
2022-12-26T01:54:38.526Z,58.41
2022-12-26T01:55:28.500Z,58.53
2022-12-26T01:56:27.538Z,58.60
2022-12-26T01:57:27.481Z,66.30
2022-12-26T01:58:27.473Z,58.70
2022-12-26T01:59:27.458Z,59.03
2022-12-26T02:00:27.446Z,58.59
2022-12-26T02:01:27.578Z,58.43
2022-12-26T02:02:27.776Z,64.64
2022-12-26T02:03:27.457Z,58.51
2022-12-26T02:04:27.415Z,58.23
2022-12-26T02:05:27.450Z,63.53
2022-12-26T02:06:27.434Z,59.31
2022-12-26T02:07:27.451Z,58.40
2022-12-26T02:08:27.419Z,58.51
2022-12-26T02:09:27.410Z,58.14
2022-12-26T02:10:27.403Z,58.36
2022-12-26T02:11:27.418Z,58.62
2022-12-26T02:12:36.539Z,57.86
2022-12-26T02:13:28.412Z,57.78
2022-12-26T02:14:27.362Z,58.43
2022-12-26T02:15:27.415Z,58.36
2022-12-26T02:16:27.417Z,58.14
2022-12-26T02:17:27.367Z,58.65
2022-12-26T02:18:27.423Z,59.17
2022-12-26T02:19:27.347Z,59.20
2022-12-26T02:20:27.344Z,62.59
2022-12-26T02:21:27.339Z,59.76
2022-12-26T02:22:27.329Z,58.43
2022-12-26T02:23:27.328Z,58.14
2022-12-26T02:24:27.302Z,58.45
2022-12-26T02:25:27.295Z,64.43
2022-12-26T02:26:27.308Z,58.29
2022-12-26T02:27:27.267Z,58.10
2022-12-26T02:28:27.274Z,63.82
2022-12-26T02:29:27.278Z,57.92
2022-12-26T02:30:27.299Z,66.25
2022-12-26T02:31:27.380Z,64.92
2022-12-26T02:32:27.269Z,58.46
2022-12-26T02:33:27.269Z,58.39
2022-12-26T02:34:27.237Z,58.10
2022-12-26T02:35:27.377Z,58.42
2022-12-26T02:36:27.228Z,58.04
2022-12-26T02:37:27.229Z,58.26
2022-12-26T02:38:27.211Z,58.46
2022-12-26T02:39:43.896Z,58.98
2022-12-26T02:40:27.235Z,65.77
2022-12-26T02:41:27.213Z,58.30
2022-12-26T02:42:27.193Z,58.29
2022-12-26T02:43:27.183Z,58.66
2022-12-26T02:44:27.202Z,65.11
2022-12-26T02:45:27.167Z,63.73
2022-12-26T02:46:27.351Z,58.14
2022-12-26T02:47:27.147Z,58.04
2022-12-26T02:48:27.183Z,58.51
2022-12-26T02:49:27.143Z,61.63
2022-12-26T02:50:27.124Z,67.30
2022-12-26T02:51:27.174Z,64.45
2022-12-26T02:52:27.143Z,58.48
2022-12-26T02:53:27.108Z,58.58
2022-12-26T02:54:27.124Z,58.37
2022-12-26T02:55:27.131Z,58.42
2022-12-26T02:56:27.151Z,58.37
2022-12-26T02:57:27.104Z,58.14
2022-12-26T02:58:27.108Z,59.39
2022-12-26T02:59:55.894Z,64.73
2022-12-26T03:00:27.125Z,70.11
2022-12-26T03:01:27.190Z,60.80
2022-12-26T03:02:27.431Z,58.18
2022-12-26T03:03:27.138Z,58.63
2022-12-26T03:04:27.048Z,58.37
2022-12-26T03:05:27.075Z,58.39
2022-12-26T03:06:27.072Z,58.56
2022-12-26T03:07:27.063Z,58.34
2022-12-26T03:08:27.109Z,58.20
2022-12-26T03:09:27.069Z,58.41
2022-12-26T03:10:27.025Z,58.61
2022-12-26T03:11:27.009Z,58.14
2022-12-26T03:12:27.047Z,58.47
2022-12-26T03:13:27.038Z,59.17
2022-12-26T03:14:27.052Z,66.11
2022-12-26T03:15:27.021Z,58.51
2022-12-26T03:16:27.065Z,58.41
2022-12-26T03:17:26.974Z,58.16
2022-12-26T03:18:58.482Z,58.22
2022-12-26T03:19:26.991Z,61.02
2022-12-26T03:20:26.973Z,61.02
2022-12-26T03:21:26.940Z,58.62
2022-12-26T03:22:26.945Z,58.70
2022-12-26T03:23:26.975Z,58.56
2022-12-26T03:24:26.972Z,58.56
2022-12-26T03:25:26.939Z,58.61
2022-12-26T03:26:26.957Z,64.50
2022-12-26T03:27:26.916Z,61.20
2022-12-26T03:28:26.958Z,58.09
2022-12-26T03:29:26.944Z,59.14
2022-12-26T03:30:26.962Z,58.38
2022-12-26T03:31:26.904Z,59.90
2022-12-26T03:32:26.903Z,58.99
2022-12-26T03:33:26.847Z,66.04
2022-12-26T03:34:26.887Z,58.44
2022-12-26T03:35:26.887Z,67.49
2022-12-26T03:36:26.877Z,61.82
2022-12-26T03:37:47.870Z,58.84
2022-12-26T03:38:27.884Z,59.04
2022-12-26T03:39:26.849Z,58.72
2022-12-26T03:40:26.818Z,58.52
2022-12-26T03:41:26.889Z,58.85
2022-12-26T03:42:26.828Z,58.63
2022-12-26T03:43:26.805Z,58.56
2022-12-26T03:44:26.824Z,59.15
2022-12-26T03:45:26.819Z,58.99
2022-12-26T03:46:26.870Z,58.42
2022-12-26T03:47:26.848Z,58.20
2022-12-26T03:48:26.809Z,58.39
2022-12-26T03:49:26.827Z,58.10
2022-12-26T03:50:26.826Z,63.95
2022-12-26T03:51:26.757Z,58.28
2022-12-26T03:52:26.819Z,58.38
2022-12-26T03:53:26.789Z,61.09
2022-12-26T03:54:26.792Z,60.63
2022-12-26T03:55:26.788Z,58.68
2022-12-26T03:56:26.754Z,58.26
2022-12-26T03:57:26.845Z,58.52
2022-12-26T03:58:26.757Z,64.36
2022-12-26T03:59:26.799Z,59.16
2022-12-26T04:00:26.757Z,58.08
2022-12-26T04:01:26.911Z,57.90
2022-12-26T04:02:26.800Z,59.82
2022-12-26T04:03:26.780Z,58.56
2022-12-26T04:04:26.708Z,58.40
2022-12-26T04:05:26.695Z,58.55
2022-12-26T04:06:26.694Z,58.61
2022-12-26T04:07:26.710Z,64.16
2022-12-26T04:08:26.762Z,59.05
2022-12-26T04:09:26.655Z,58.19
2022-12-26T04:10:26.692Z,63.58
2022-12-26T04:11:26.628Z,59.05
2022-12-26T04:12:26.662Z,58.54
2022-12-26T04:13:26.627Z,58.27
2022-12-26T04:14:26.669Z,58.62
2022-12-26T04:15:27.692Z,58.72
2022-12-26T04:16:26.618Z,59.14
2022-12-26T04:17:26.630Z,62.39
2022-12-26T04:18:26.648Z,62.71
2022-12-26T04:19:26.740Z,58.55
2022-12-26T04:20:26.636Z,58.91
2022-12-26T04:21:26.589Z,64.59
2022-12-26T04:22:26.621Z,58.74
2022-12-26T04:23:26.625Z,58.32
2022-12-26T04:24:26.604Z,59.99
2022-12-26T04:25:50.300Z,63.24
2022-12-26T04:26:27.577Z,58.62
2022-12-26T04:27:26.574Z,64.77
2022-12-26T04:28:26.569Z,59.56
2022-12-26T04:29:26.516Z,58.44
2022-12-26T04:30:26.580Z,58.64
2022-12-26T04:31:26.628Z,68.62
2022-12-26T04:32:26.524Z,59.63
2022-12-26T04:33:26.529Z,63.26
2022-12-26T04:34:26.507Z,64.30
2022-12-26T04:35:26.530Z,59.02
2022-12-26T04:36:26.560Z,65.05
2022-12-26T04:37:26.550Z,62.05
2022-12-26T04:38:26.491Z,76.48
2022-12-26T04:39:26.468Z,61.62
2022-12-26T04:40:26.494Z,58.81
2022-12-26T04:41:26.497Z,63.43
2022-12-26T04:42:26.489Z,59.02
2022-12-26T04:43:46.815Z,58.54
2022-12-26T04:44:27.454Z,58.42
2022-12-26T04:45:26.490Z,58.49
2022-12-26T04:46:26.508Z,58.91
2022-12-26T04:47:26.483Z,71.47
2022-12-26T04:48:26.445Z,59.81
2022-12-26T04:49:26.425Z,64.77
2022-12-26T04:50:26.425Z,59.02
2022-12-26T04:51:26.410Z,63.96
2022-12-26T04:52:26.471Z,59.25
2022-12-26T04:53:26.403Z,63.58
2022-12-26T04:54:26.405Z,58.80
2022-12-26T04:55:26.375Z,62.06
2022-12-26T04:56:26.422Z,58.81
2022-12-26T04:57:26.382Z,64.67
2022-12-26T04:58:26.400Z,58.80
2022-12-26T04:59:26.393Z,67.19
2022-12-26T05:00:26.370Z,59.83
2022-12-26T05:01:26.497Z,59.43
2022-12-26T05:02:26.395Z,59.10
2022-12-26T05:03:26.491Z,59.09
2022-12-26T05:04:26.374Z,58.73
2022-12-26T05:05:26.336Z,61.09
2022-12-26T05:06:26.342Z,58.66
2022-12-26T05:07:26.307Z,58.41
2022-12-26T05:08:26.322Z,59.32
2022-12-26T05:09:26.350Z,74.92
2022-12-26T05:10:26.339Z,59.82
2022-12-26T05:11:26.340Z,68.78
2022-12-26T05:12:26.309Z,58.61
2022-12-26T05:13:26.275Z,58.20
2022-12-26T05:14:26.273Z,63.18
2022-12-26T05:15:26.331Z,59.18
2022-12-26T05:16:26.368Z,58.73
2022-12-26T05:17:26.287Z,64.91
2022-12-26T05:18:26.241Z,58.07
2022-12-26T05:19:27.294Z,58.29
2022-12-26T05:20:26.300Z,58.62
2022-12-26T05:21:26.235Z,70.69
2022-12-26T05:22:26.271Z,60.18
2022-12-26T05:23:26.223Z,61.78
2022-12-26T05:24:26.238Z,58.45
2022-12-26T05:25:26.246Z,58.81
2022-12-26T05:26:26.240Z,58.34
2022-12-26T05:27:26.229Z,61.11
2022-12-26T05:29:00.504Z,63.52
2022-12-26T05:29:26.236Z,59.21
2022-12-26T05:30:26.254Z,61.30
2022-12-26T05:31:31.128Z,59.79
2022-12-26T05:32:28.207Z,66.38
2022-12-26T05:33:26.191Z,69.18
2022-12-26T05:34:26.128Z,60.52
2022-12-26T05:35:27.199Z,66.96
2022-12-26T05:36:26.199Z,63.46
2022-12-26T05:37:26.178Z,58.56
2022-12-26T05:38:26.182Z,63.81
2022-12-26T05:39:26.154Z,62.34
2022-12-26T05:40:26.193Z,67.09
2022-12-26T05:41:26.162Z,59.22
2022-12-26T05:42:26.097Z,65.09
2022-12-26T05:43:26.104Z,58.77
2022-12-26T05:44:26.147Z,64.17
2022-12-26T05:45:26.103Z,60.07
2022-12-26T05:46:26.212Z,58.43
2022-12-26T05:47:26.120Z,58.69
2022-12-26T05:48:27.122Z,61.90
2022-12-26T05:49:26.082Z,65.48
2022-12-26T05:50:26.060Z,58.67
2022-12-26T05:51:26.111Z,58.31
2022-12-26T05:52:26.105Z,59.13
2022-12-26T05:53:26.058Z,58.22
2022-12-26T05:54:26.080Z,58.26
2022-12-26T05:55:26.045Z,58.36
2022-12-26T05:56:26.018Z,58.69
2022-12-26T05:57:26.114Z,66.23
2022-12-26T05:58:26.063Z,58.26
2022-12-26T05:59:26.047Z,58.94
2022-12-26T06:00:26.040Z,59.15
2022-12-26T06:01:26.088Z,63.98
2022-12-26T06:02:26.057Z,58.88
2022-12-26T06:03:26.268Z,64.31
2022-12-26T06:04:26.004Z,58.72
2022-12-26T06:05:25.966Z,58.20
2022-12-26T06:06:26.046Z,63.60
2022-12-26T06:07:25.965Z,62.82
2022-12-26T06:08:26.043Z,58.70
2022-12-26T06:09:25.983Z,58.55
2022-12-26T06:10:25.958Z,64.06
2022-12-26T06:11:25.991Z,58.26
2022-12-26T06:12:25.993Z,63.34
2022-12-26T06:13:26.006Z,58.96
2022-12-26T06:14:25.956Z,58.29
2022-12-26T06:15:25.941Z,58.28
2022-12-26T06:16:25.991Z,60.06
2022-12-26T06:17:25.938Z,62.07
2022-12-26T06:18:25.950Z,58.32
2022-12-26T06:19:26.077Z,64.87
2022-12-26T06:20:25.927Z,58.46
2022-12-26T06:21:25.903Z,60.59
2022-12-26T06:22:25.861Z,67.32
2022-12-26T06:23:25.883Z,61.00
2022-12-26T06:24:25.893Z,70.61
2022-12-26T06:25:25.905Z,58.93
2022-12-26T06:26:25.867Z,58.47
2022-12-26T06:27:25.911Z,72.59
2022-12-26T06:28:25.882Z,69.57
2022-12-26T06:29:25.858Z,58.74
2022-12-26T06:30:26.898Z,59.15
2022-12-26T06:31:25.872Z,66.81
2022-12-26T06:32:25.815Z,60.67
2022-12-26T06:33:25.820Z,59.57
2022-12-26T06:34:25.792Z,63.94
2022-12-26T06:35:25.823Z,64.59
2022-12-26T06:36:25.814Z,59.45
2022-12-26T06:37:25.810Z,59.02
2022-12-26T06:38:25.793Z,59.17
2022-12-26T06:39:25.786Z,70.09
2022-12-26T06:40:25.778Z,70.60
2022-12-26T06:41:25.794Z,65.17
2022-12-26T06:42:25.799Z,60.06
2022-12-26T06:43:25.773Z,62.20
2022-12-26T06:44:25.749Z,63.37
2022-12-26T06:45:25.762Z,60.20
2022-12-26T06:46:25.801Z,70.63
2022-12-26T06:47:25.727Z,64.33
2022-12-26T06:48:25.747Z,58.65
2022-12-26T06:49:32.147Z,63.71
2022-12-26T06:50:27.770Z,61.52
2022-12-26T06:51:25.700Z,58.26
2022-12-26T06:52:25.720Z,58.40
2022-12-26T06:53:25.728Z,60.84
2022-12-26T06:54:26.700Z,63.13
2022-12-26T06:55:25.697Z,62.41
2022-12-26T06:56:25.713Z,66.89
2022-12-26T06:57:25.682Z,67.76
2022-12-26T06:58:25.659Z,63.13
2022-12-26T06:59:25.644Z,61.59
2022-12-26T07:00:25.663Z,61.70
2022-12-26T07:01:25.727Z,65.42
2022-12-26T07:02:25.784Z,64.10
2022-12-26T07:03:25.625Z,59.24
2022-12-26T07:04:25.666Z,65.77
2022-12-26T07:05:25.675Z,64.61
2022-12-26T07:06:25.629Z,65.02
2022-12-26T07:07:25.640Z,63.79
2022-12-26T07:08:25.643Z,59.77
2022-12-26T07:09:31.493Z,66.28
2022-12-26T07:10:26.606Z,60.83
2022-12-26T07:11:25.602Z,60.24
2022-12-26T07:12:25.710Z,67.12
2022-12-26T07:13:25.574Z,59.13
2022-12-26T07:14:25.575Z,60.41
2022-12-26T07:15:25.593Z,62.49
2022-12-26T07:16:25.595Z,70.18
2022-12-26T07:17:25.554Z,62.56
2022-12-26T07:18:25.589Z,61.24
2022-12-26T07:19:25.548Z,64.45
2022-12-26T07:20:25.541Z,60.34
2022-12-26T07:21:25.540Z,60.09
2022-12-26T07:22:25.552Z,72.47
2022-12-26T07:23:25.575Z,64.29
2022-12-26T07:24:25.539Z,65.03
2022-12-26T07:25:25.554Z,70.02
2022-12-26T07:26:25.539Z,63.34
2022-12-26T07:27:25.500Z,63.55
2022-12-26T07:28:25.500Z,62.10
2022-12-26T07:29:25.509Z,65.20
2022-12-26T07:30:25.494Z,61.54
2022-12-26T07:31:25.661Z,67.48
2022-12-26T07:32:25.502Z,65.46
2022-12-26T07:33:25.528Z,70.13
2022-12-26T07:34:31.238Z,72.11
2022-12-26T07:35:27.438Z,64.68
2022-12-26T07:36:25.494Z,63.39
2022-12-26T07:37:25.452Z,63.45
2022-12-26T07:38:25.461Z,64.96
2022-12-26T07:39:25.428Z,76.28
2022-12-26T07:40:25.459Z,71.37
2022-12-26T07:41:25.413Z,62.59
2022-12-26T07:42:25.405Z,62.04
2022-12-26T07:43:25.446Z,61.71
2022-12-26T07:44:25.408Z,65.72
2022-12-26T07:45:25.545Z,66.76
2022-12-26T07:46:25.486Z,67.38
2022-12-26T07:47:25.382Z,75.22
2022-12-26T07:48:25.387Z,61.53
2022-12-26T07:49:25.384Z,64.64
2022-12-26T07:50:25.358Z,61.41
2022-12-26T07:51:25.406Z,68.29
2022-12-26T07:52:25.354Z,61.69
2022-12-26T07:53:25.376Z,61.82
2022-12-26T07:54:25.365Z,66.65
2022-12-26T07:55:25.369Z,74.52
2022-12-26T07:56:25.366Z,65.51
2022-12-26T07:58:27.367Z,75.08
2022-12-26T07:59:25.292Z,65.87
2022-12-26T08:00:25.298Z,65.39
2022-12-26T08:01:25.461Z,67.71
2022-12-26T08:02:25.578Z,71.96
2022-12-26T08:03:25.353Z,61.25
2022-12-26T08:04:25.297Z,61.70
2022-12-26T08:05:25.283Z,67.28
2022-12-26T08:06:25.299Z,61.68
2022-12-26T08:07:25.300Z,74.00
2022-12-26T08:08:25.241Z,71.48
2022-12-26T08:09:25.234Z,67.44
2022-12-26T08:10:25.333Z,62.27
2022-12-26T08:11:25.261Z,60.30
2022-12-26T08:12:25.251Z,65.03
2022-12-26T08:13:25.338Z,60.57
2022-12-26T08:14:25.237Z,65.32
2022-12-26T08:15:25.246Z,71.68
2022-12-26T08:16:25.303Z,70.35
2022-12-26T08:17:25.213Z,67.38
2022-12-26T08:18:25.187Z,63.20
2022-12-26T08:19:25.203Z,68.57
2022-12-26T08:20:25.217Z,66.31
2022-12-26T08:21:25.188Z,65.40
2022-12-26T08:22:25.136Z,63.74
2022-12-26T08:23:25.146Z,66.02
2022-12-26T08:24:25.173Z,67.21
2022-12-26T08:25:25.153Z,69.33
2022-12-26T08:26:25.163Z,65.06
2022-12-26T08:27:25.107Z,73.65
2022-12-26T08:28:25.109Z,62.17
2022-12-26T08:29:25.133Z,73.26
2022-12-26T08:30:25.133Z,63.81
2022-12-26T08:32:25.106Z,74.78
2022-12-26T08:33:25.151Z,69.63
2022-12-26T08:34:25.090Z,62.96
2022-12-26T08:35:25.175Z,73.40
2022-12-26T08:36:25.068Z,74.80
2022-12-26T08:37:25.106Z,69.00
2022-12-26T08:38:29.773Z,70.89
2022-12-26T08:39:25.052Z,64.19
2022-12-26T08:40:41.965Z,80.23
2022-12-26T08:41:27.075Z,75.27
2022-12-26T08:42:25.080Z,71.76
2022-12-26T08:43:53.135Z,74.94
2022-12-26T08:44:28.186Z,67.69
2022-12-26T08:45:25.062Z,73.63
2022-12-26T08:46:25.228Z,71.70
2022-12-26T08:47:25.021Z,61.94
2022-12-26T08:48:25.000Z,66.55
2022-12-26T08:49:25.064Z,71.18
2022-12-26T08:50:25.135Z,66.71
2022-12-26T08:51:25.027Z,62.02
2022-12-26T08:52:25.083Z,68.92
2022-12-26T08:53:25.157Z,74.33
2022-12-26T08:54:25.016Z,66.77
2022-12-26T08:55:24.948Z,72.82
2022-12-26T08:56:25.009Z,76.02
2022-12-26T08:57:25.129Z,69.37
2022-12-26T08:58:31.658Z,76.72
2022-12-26T08:59:25.024Z,77.97
2022-12-26T09:00:24.980Z,77.80
2022-12-26T09:01:25.034Z,78.98
2022-12-26T09:02:25.298Z,74.73
2022-12-26T09:03:24.961Z,77.36
2022-12-26T09:04:24.916Z,78.72
2022-12-26T09:05:24.929Z,79.47
2022-12-26T09:06:24.899Z,79.03
2022-12-26T09:07:24.895Z,80.10
2022-12-26T09:08:24.978Z,74.30
2022-12-26T09:09:24.893Z,79.63
2022-12-26T09:10:25.089Z,78.48
2022-12-26T09:11:24.865Z,75.97
2022-12-26T09:12:24.889Z,70.42
2022-12-26T09:13:25.086Z,71.78
2022-12-26T09:14:25.829Z,71.62
2022-12-26T09:15:25.164Z,77.40
2022-12-26T09:16:24.893Z,72.68
2022-12-26T09:17:24.860Z,67.89
2022-12-26T09:18:25.635Z,77.78
2022-12-26T09:19:24.867Z,70.49
2022-12-26T09:20:24.843Z,77.98
2022-12-26T09:21:24.853Z,69.98
2022-12-26T09:22:24.821Z,77.45
2022-12-26T09:23:24.798Z,72.37
2022-12-26T09:24:24.867Z,80.64
2022-12-26T09:25:24.777Z,74.99
2022-12-26T09:26:26.667Z,72.89
2022-12-26T09:27:25.971Z,73.10
2022-12-26T09:28:24.803Z,73.05
2022-12-26T09:29:26.191Z,73.76
2022-12-26T09:30:26.039Z,70.26
2022-12-26T09:31:24.799Z,71.71
2022-12-26T09:32:24.936Z,63.46
2022-12-26T09:33:24.751Z,70.12
2022-12-26T09:34:24.893Z,74.13
2022-12-26T09:35:24.876Z,65.44
2022-12-26T09:36:24.751Z,76.61
2022-12-26T09:37:24.809Z,81.71
2022-12-26T09:38:24.714Z,70.01
2022-12-26T09:39:24.773Z,75.50
2022-12-26T09:40:24.770Z,75.44
2022-12-26T09:41:24.729Z,77.07
2022-12-26T09:42:24.720Z,70.93
2022-12-26T09:43:24.733Z,69.90
2022-12-26T09:44:24.737Z,67.80
2022-12-26T09:45:24.717Z,79.79
2022-12-26T09:46:24.752Z,71.30
2022-12-26T09:47:24.751Z,76.33
2022-12-26T09:48:24.696Z,66.77
2022-12-26T09:49:24.682Z,73.52
2022-12-26T09:50:24.680Z,76.43
2022-12-26T09:51:24.744Z,69.27
2022-12-26T09:52:24.702Z,78.07
2022-12-26T09:53:24.700Z,78.07
2022-12-26T09:54:24.687Z,67.98
2022-12-26T09:55:24.633Z,81.86
2022-12-26T09:57:25.689Z,69.16
2022-12-26T09:58:24.612Z,76.68
2022-12-26T09:59:24.648Z,77.58
2022-12-26T10:00:24.645Z,73.65
2022-12-26T10:01:25.339Z,75.08
2022-12-26T10:02:24.758Z,74.92
2022-12-26T10:03:24.640Z,78.42
2022-12-26T10:04:29.064Z,78.21
2022-12-26T10:05:25.574Z,77.84
2022-12-26T10:06:24.563Z,84.61
2022-12-26T10:07:24.607Z,77.73
2022-12-26T10:08:24.597Z,76.47
2022-12-26T10:09:24.548Z,79.57
2022-12-26T10:10:24.533Z,75.67
2022-12-26T10:11:24.523Z,71.75
2022-12-26T10:12:24.537Z,79.47
2022-12-26T10:13:24.531Z,73.29
2022-12-26T10:14:24.516Z,72.68
2022-12-26T10:15:24.504Z,79.21
2022-12-26T10:16:24.561Z,80.20
2022-12-26T10:17:24.573Z,80.09
2022-12-26T10:18:24.500Z,72.14
2022-12-26T10:19:30.414Z,65.99
2022-12-26T10:20:26.498Z,70.89
2022-12-26T10:21:24.484Z,77.01
2022-12-26T10:22:24.553Z,81.24
2022-12-26T10:23:24.507Z,80.67
2022-12-26T10:24:24.488Z,71.95
2022-12-26T10:25:27.541Z,82.28
2022-12-26T10:26:24.444Z,76.68
2022-12-26T10:27:24.557Z,75.36
2022-12-26T10:28:24.500Z,77.47
2022-12-26T10:29:24.562Z,76.16
2022-12-26T10:30:24.441Z,80.47
2022-12-26T10:31:24.430Z,78.40
2022-12-26T10:32:27.863Z,78.31
2022-12-26T10:33:25.499Z,76.80
2022-12-26T10:34:24.405Z,83.55
2022-12-26T10:35:24.430Z,81.03
2022-12-26T10:36:24.491Z,71.05
2022-12-26T10:37:24.433Z,81.73
2022-12-26T10:38:27.622Z,80.01
2022-12-26T10:39:24.355Z,72.55
2022-12-26T10:40:24.372Z,67.58
2022-12-26T10:41:24.412Z,84.01
2022-12-26T10:42:24.373Z,75.66
2022-12-26T10:43:24.389Z,72.90
2022-12-26T10:44:27.850Z,73.65
2022-12-26T10:45:25.376Z,72.54
2022-12-26T10:46:24.392Z,80.93
2022-12-26T10:47:24.392Z,80.38
2022-12-26T10:48:24.410Z,79.06
2022-12-26T10:49:24.371Z,77.55
2022-12-26T10:50:27.574Z,80.51
2022-12-26T10:51:24.283Z,76.58
2022-12-26T10:52:24.380Z,74.23
2022-12-26T10:53:24.315Z,82.19
2022-12-26T10:54:24.255Z,73.10
2022-12-26T10:55:28.942Z,81.84
2022-12-26T10:56:25.277Z,78.46
2022-12-26T10:57:24.271Z,79.33
2022-12-26T10:58:24.271Z,78.63
2022-12-26T10:59:24.364Z,81.30
2022-12-26T11:00:24.219Z,73.74
2022-12-26T11:01:24.354Z,79.05
2022-12-26T11:02:24.376Z,74.84
2022-12-26T11:03:24.364Z,82.09
2022-12-26T11:05:48.902Z,75.80
2022-12-26T11:06:26.218Z,72.79
2022-12-26T11:07:24.267Z,75.46
2022-12-26T11:08:24.239Z,74.77
2022-12-26T11:09:24.242Z,75.27
2022-12-26T11:10:24.187Z,73.90
2022-12-26T11:11:24.222Z,81.79
2022-12-26T11:12:24.176Z,79.40
2022-12-26T11:13:24.211Z,72.99
2022-12-26T11:14:26.243Z,74.81
2022-12-26T11:15:24.139Z,69.46
2022-12-26T11:16:24.169Z,78.27
2022-12-26T11:17:24.138Z,70.65
2022-12-26T11:18:24.140Z,73.65
2022-12-26T11:19:24.114Z,74.86
2022-12-26T11:20:24.099Z,68.99
2022-12-26T11:21:24.121Z,67.74
2022-12-26T11:22:24.119Z,73.39
2022-12-26T11:23:24.142Z,80.58
2022-12-26T11:24:24.096Z,76.31
2022-12-26T11:25:24.041Z,78.06
2022-12-26T11:26:24.044Z,77.04
2022-12-26T11:27:24.058Z,68.97
2022-12-26T11:28:56.640Z,77.84
2022-12-26T11:29:24.060Z,71.83
2022-12-26T11:30:24.067Z,73.08
2022-12-26T11:31:24.092Z,74.35
2022-12-26T11:32:24.036Z,74.71
2022-12-26T11:33:24.013Z,74.42
2022-12-26T11:34:23.983Z,63.20
2022-12-26T11:35:24.035Z,73.00
2022-12-26T11:36:24.003Z,80.90
2022-12-26T11:37:23.959Z,74.53
2022-12-26T11:38:24.006Z,71.70
2022-12-26T11:39:23.992Z,74.84
2022-12-26T11:40:23.982Z,74.44
2022-12-26T11:41:24.016Z,76.66
2022-12-26T11:42:23.930Z,77.91
2022-12-26T11:43:23.949Z,74.25
2022-12-26T11:44:23.934Z,76.93
2022-12-26T11:45:23.940Z,69.11
2022-12-26T11:46:24.002Z,76.45
2022-12-26T11:47:23.963Z,82.52
2022-12-26T11:48:23.935Z,81.21
2022-12-26T11:49:23.930Z,71.75
2022-12-26T11:50:23.881Z,74.56
2022-12-26T11:51:23.904Z,75.86
2022-12-26T11:52:23.998Z,79.63
2022-12-26T11:53:23.893Z,75.19
2022-12-26T11:54:23.893Z,78.08
2022-12-26T11:55:23.881Z,76.61
2022-12-26T11:56:23.878Z,80.33
2022-12-26T11:57:23.923Z,78.54
2022-12-26T11:58:23.861Z,78.03
2022-12-26T11:59:23.861Z,77.56
2022-12-26T12:00:24.824Z,76.56
2022-12-26T12:01:23.890Z,75.90
2022-12-26T12:02:23.931Z,78.10
2022-12-26T12:03:23.924Z,75.56
2022-12-26T12:04:23.835Z,75.52
2022-12-26T12:05:23.806Z,73.24
2022-12-26T12:06:23.830Z,69.94
2022-12-26T12:07:23.819Z,73.58
2022-12-26T12:08:23.843Z,71.61
2022-12-26T12:09:23.773Z,79.49
2022-12-26T12:10:23.796Z,77.03
2022-12-26T12:11:23.786Z,77.04
2022-12-26T12:12:23.782Z,68.48
2022-12-26T12:13:23.749Z,75.30
2022-12-26T12:14:24.777Z,74.79
2022-12-26T12:15:23.755Z,77.42
2022-12-26T12:16:23.769Z,75.37
2022-12-26T12:17:23.751Z,74.27
2022-12-26T12:18:23.718Z,80.02
2022-12-26T12:19:23.735Z,71.67
2022-12-26T12:20:23.749Z,78.31
2022-12-26T12:21:23.689Z,81.98
2022-12-26T12:22:23.682Z,67.57
2022-12-26T12:23:23.706Z,65.26
2022-12-26T12:24:23.735Z,73.96
2022-12-26T12:25:23.724Z,75.54
2022-12-26T12:26:23.655Z,74.81
2022-12-26T12:27:23.682Z,77.92
2022-12-26T12:28:23.654Z,69.99
2022-12-26T12:29:23.667Z,68.74
2022-12-26T12:30:23.666Z,69.50
2022-12-26T12:31:23.727Z,78.66
2022-12-26T12:32:23.657Z,69.81
2022-12-26T12:33:23.627Z,79.55
2022-12-26T12:34:23.668Z,77.21
2022-12-26T12:35:23.655Z,79.60
2022-12-26T12:36:23.640Z,66.64
2022-12-26T12:37:23.626Z,74.53
2022-12-26T12:38:23.607Z,68.05
2022-12-26T12:39:23.640Z,76.55
2022-12-26T12:40:23.580Z,71.78
2022-12-26T12:41:23.583Z,75.13
2022-12-26T12:42:23.642Z,78.67
2022-12-26T12:43:23.602Z,72.81
2022-12-26T12:44:23.620Z,80.44
2022-12-26T12:45:23.601Z,70.45
2022-12-26T12:46:23.579Z,77.93
2022-12-26T12:47:23.538Z,68.97
2022-12-26T12:48:23.554Z,70.01
2022-12-26T12:49:23.540Z,68.40
2022-12-26T12:50:23.542Z,75.63
2022-12-26T12:51:23.505Z,70.56
2022-12-26T12:52:23.531Z,71.41
2022-12-26T12:53:23.507Z,73.26
2022-12-26T12:54:23.520Z,76.60
2022-12-26T12:55:23.508Z,72.68
2022-12-26T12:56:23.509Z,67.75